createdAt,value
2023-01-21T00:00:10.551Z,19.33
2023-01-21T00:02:38.982Z,22.97
2023-01-21T00:05:08.270Z,16.40
2023-01-21T00:07:36.813Z,18.30
2023-01-21T00:10:06.063Z,15.40
2023-01-21T00:12:35.972Z,14.47
2023-01-21T00:15:04.848Z,12.27
2023-01-21T00:17:35.990Z,12.13
2023-01-21T00:20:05.257Z,13.13
2023-01-21T00:22:34.474Z,30.20
2023-01-21T00:25:03.797Z,17.87
2023-01-21T00:27:32.272Z,13.40
2023-01-21T00:30:02.077Z,10.90
2023-01-21T00:32:30.551Z,13.93
2023-01-21T00:34:59.093Z,24.27
2023-01-21T00:37:27.596Z,22.73
2023-01-21T00:39:56.154Z,24.97
2023-01-21T00:42:24.916Z,29.93
2023-01-21T00:44:53.413Z,13.60
2023-01-21T00:47:23.241Z,14.67
2023-01-21T00:49:51.769Z,18.63
2023-01-21T00:52:20.397Z,16.97
2023-01-21T00:54:48.822Z,15.67
2023-01-21T00:57:41.974Z,26.43
2023-01-21T01:00:13.155Z,20.13
2023-01-21T01:02:43.054Z,16.03
2023-01-21T01:05:11.641Z,16.67
2023-01-21T01:07:41.189Z,22.67
2023-01-21T01:10:11.260Z,17.30
2023-01-21T01:12:39.772Z,15.90
2023-01-21T01:15:09.664Z,29.90
2023-01-21T01:17:38.863Z,71.13
2023-01-21T01:20:10.987Z,80.57
2023-01-21T01:22:39.614Z,63.87
2023-01-21T01:25:09.041Z,19.13
2023-01-21T01:27:37.486Z,44.67
2023-01-21T01:30:13.767Z,58.20
2023-01-21T01:32:42.231Z,43.67
2023-01-21T01:35:12.339Z,26.33
2023-01-21T01:37:40.853Z,23.57
2023-01-21T01:40:22.213Z,24.00
2023-01-21T01:42:50.748Z,19.47
2023-01-21T01:45:22.102Z,26.53
2023-01-21T01:48:00.018Z,24.33
2023-01-21T01:50:35.194Z,20.37
2023-01-21T01:53:04.135Z,30.70
2023-01-21T01:55:37.028Z,31.80
2023-01-21T01:58:13.345Z,28.27
2023-01-21T02:00:41.769Z,25.00
2023-01-21T02:03:28.008Z,18.73
2023-01-21T02:05:58.187Z,22.67
2023-01-21T02:08:28.539Z,15.37
2023-01-21T02:10:57.146Z,20.67
2023-01-21T02:13:29.491Z,15.43
2023-01-21T02:16:26.146Z,21.10
2023-01-21T02:19:12.283Z,20.27
2023-01-21T02:22:07.811Z,18.90
2023-01-21T02:25:28.988Z,13.83
2023-01-21T02:28:39.552Z,35.47
2023-01-21T02:31:33.414Z,33.57
2023-01-21T02:34:22.458Z,60.27
2023-01-21T02:37:10.033Z,17.77
2023-01-21T02:40:07.498Z,21.57
2023-01-21T02:42:46.143Z,25.40
2023-01-21T02:45:28.552Z,29.87
2023-01-21T02:48:06.863Z,33.63
2023-01-21T02:50:43.623Z,29.53
2023-01-21T02:53:36.735Z,59.27
2023-01-21T02:56:12.816Z,23.17
2023-01-21T02:59:06.717Z,35.10
2023-01-21T03:01:54.899Z,12.80
2023-01-21T03:04:58.423Z,13.20
2023-01-21T03:07:34.770Z,14.53
2023-01-21T03:10:51.789Z,13.63
2023-01-21T03:13:43.946Z,16.63
2023-01-21T03:16:40.600Z,14.97
2023-01-21T03:22:31.073Z,19.63
2023-01-21T03:25:02.222Z,20.17
2023-01-21T03:27:41.723Z,14.90
2023-01-21T03:30:16.218Z,17.87
2023-01-21T03:32:51.209Z,15.47
2023-01-21T03:35:26.308Z,15.70
2023-01-21T03:38:04.639Z,20.80
2023-01-21T03:40:41.203Z,25.13
2023-01-21T03:43:10.566Z,19.67
2023-01-21T03:45:47.763Z,14.53
2023-01-21T03:48:24.450Z,20.23
2023-01-21T03:51:00.593Z,19.30
2023-01-21T03:53:30.661Z,28.43
2023-01-21T03:55:59.989Z,19.37
2023-01-21T03:58:29.402Z,22.67
2023-01-21T04:00:57.933Z,17.50
2023-01-21T04:03:26.505Z,13.50
2023-01-21T04:06:22.751Z,10.80
2023-01-21T04:08:52.690Z,11.67
2023-01-21T04:11:21.167Z,14.17
2023-01-21T04:13:49.632Z,11.33
2023-01-21T04:16:18.846Z,11.33
2023-01-21T04:18:48.156Z,16.50
2023-01-21T04:21:16.640Z,11.60
2023-01-21T04:23:45.196Z,10.37
2023-01-21T04:26:16.510Z,9.23
2023-01-21T04:28:45.014Z,10.13
2023-01-21T04:31:13.561Z,8.77
2023-01-21T04:33:42.813Z,10.77
2023-01-21T04:36:11.441Z,10.73
2023-01-21T04:38:39.962Z,10.37
2023-01-21T04:41:08.403Z,10.87
2023-01-21T04:43:38.261Z,11.37
2023-01-21T04:46:07.248Z,9.13
2023-01-21T04:48:35.799Z,10.20
2023-01-21T04:51:06.279Z,11.97
2023-01-21T04:53:34.976Z,8.90
2023-01-21T04:56:03.547Z,9.07
2023-01-21T04:58:39.411Z,11.00
2023-01-21T05:01:08.180Z,8.67
2023-01-21T05:03:36.652Z,9.43
2023-01-21T05:06:05.393Z,8.63
2023-01-21T05:08:33.894Z,10.00
2023-01-21T05:11:02.368Z,9.07
2023-01-21T05:13:30.865Z,10.43
2023-01-21T05:16:08.547Z,9.23
2023-01-21T05:18:37.458Z,10.73
2023-01-21T05:21:06.963Z,9.93
2023-01-21T05:23:35.540Z,8.63
2023-01-21T05:26:04.549Z,9.77
2023-01-21T05:28:33.063Z,13.77
2023-01-21T05:31:02.935Z,11.50
2023-01-21T05:33:35.598Z,12.60
2023-01-21T05:36:05.757Z,14.13
2023-01-21T05:38:34.272Z,13.30
2023-01-21T05:41:04.864Z,14.60
2023-01-21T05:43:33.386Z,12.03
2023-01-21T05:46:01.904Z,23.67
2023-01-21T05:48:30.605Z,15.27
2023-01-21T05:51:01.041Z,13.30
2023-01-21T05:53:29.765Z,11.20
2023-01-21T05:55:59.228Z,10.83
2023-01-21T05:58:28.419Z,16.53
2023-01-21T06:00:59.575Z,11.47
2023-01-21T06:03:28.545Z,12.83
2023-01-21T06:05:57.104Z,11.60
2023-01-21T06:08:27.106Z,10.90
2023-01-21T06:10:56.303Z,11.63
2023-01-21T06:13:25.653Z,12.97
2023-01-21T06:15:57.075Z,15.97
2023-01-21T06:18:26.607Z,17.43
2023-01-21T06:20:55.137Z,17.77
2023-01-21T06:23:23.705Z,16.53
2023-01-21T06:25:53.557Z,17.63
2023-01-21T06:28:22.089Z,25.27
2023-01-21T06:30:50.738Z,28.60
2023-01-21T06:33:19.515Z,18.80
2023-01-21T06:35:48.529Z,19.00
2023-01-21T06:38:17.053Z,15.73
2023-01-21T06:40:45.638Z,15.90
2023-01-21T06:43:15.521Z,13.33
2023-01-21T06:45:44.248Z,16.90
2023-01-21T06:48:12.667Z,16.23
2023-01-21T06:50:41.291Z,15.87
2023-01-21T06:53:09.785Z,15.63
2023-01-21T06:56:03.392Z,10.40
2023-01-21T06:58:33.266Z,12.70
2023-01-21T07:01:01.826Z,16.07
2023-01-21T07:03:32.461Z,14.27
2023-01-21T07:06:00.927Z,15.80
2023-01-21T07:08:29.398Z,17.53
2023-01-21T07:10:57.909Z,17.93
2023-01-21T07:13:26.370Z,18.90
2023-01-21T07:16:01.732Z,27.57
2023-01-21T07:18:30.325Z,23.00
2023-01-21T07:20:59.102Z,23.57
2023-01-21T07:23:27.552Z,23.63
2023-01-21T07:25:56.015Z,19.53
2023-01-21T07:28:24.509Z,21.07
2023-01-21T07:30:52.954Z,26.97
2023-01-21T07:33:22.845Z,22.10
2023-01-21T07:35:51.442Z,22.93
2023-01-21T07:38:19.899Z,18.97
2023-01-21T07:40:49.760Z,22.57
2023-01-21T07:43:18.722Z,21.43
2023-01-21T07:45:47.413Z,17.10
2023-01-21T07:48:15.900Z,17.43
2023-01-21T07:50:45.725Z,16.47
2023-01-21T07:53:14.682Z,12.03
2023-01-21T07:56:10.191Z,15.40
2023-01-21T07:58:39.434Z,10.57
2023-01-21T08:01:09.799Z,11.33
2023-01-21T08:03:39.280Z,10.83
2023-01-21T08:06:09.471Z,11.33
2023-01-21T08:08:38.009Z,11.57
2023-01-21T08:11:06.731Z,13.33
2023-01-21T08:13:35.164Z,13.40
2023-01-21T08:16:04.501Z,11.43
2023-01-21T08:18:32.964Z,10.07
2023-01-21T08:21:01.849Z,10.70
2023-01-21T08:23:32.082Z,11.80
2023-01-21T08:26:03.969Z,8.73
2023-01-21T08:28:54.646Z,11.43
2023-01-21T08:31:23.191Z,12.57
2023-01-21T08:33:51.672Z,9.20
2023-01-21T08:36:20.187Z,9.27
2023-01-21T08:38:54.098Z,8.73
2023-01-21T08:41:22.625Z,11.30
2023-01-21T08:43:51.078Z,14.57
2023-01-21T08:46:19.672Z,13.13
2023-01-21T08:48:48.128Z,11.47
2023-01-21T08:51:16.699Z,13.53
2023-01-21T08:53:45.228Z,10.73
2023-01-21T08:56:15.027Z,12.47
2023-01-21T08:58:43.525Z,10.77
2023-01-21T09:01:15.971Z,9.93
2023-01-21T09:03:44.588Z,9.57
2023-01-21T09:06:13.308Z,10.17
2023-01-21T09:08:42.169Z,13.47
2023-01-21T09:11:10.716Z,11.07
2023-01-21T09:14:03.466Z,8.43
2023-01-21T09:16:33.178Z,8.60
2023-01-21T09:19:02.237Z,10.10
2023-01-21T09:21:30.810Z,8.63
2023-01-21T09:23:59.373Z,10.77
2023-01-21T09:26:28.207Z,8.30
2023-01-21T09:29:01.023Z,6.70
2023-01-21T09:31:31.584Z,9.30
2023-01-21T09:34:03.738Z,7.30
2023-01-21T09:36:34.217Z,9.23
2023-01-21T09:39:03.511Z,9.23
2023-01-21T09:41:37.502Z,8.70
2023-01-21T09:44:23.749Z,7.30
2023-01-21T09:46:59.556Z,5.80
2023-01-21T09:49:34.032Z,6.30
2023-01-21T09:52:17.562Z,7.97
2023-01-21T09:54:46.025Z,6.00
2023-01-21T09:57:41.020Z,6.03
2023-01-21T10:00:33.874Z,7.13
2023-01-21T10:03:18.614Z,6.43
2023-01-21T10:06:25.428Z,7.10
2023-01-21T10:09:28.315Z,4.93
2023-01-21T10:12:28.292Z,5.53
2023-01-21T10:15:37.734Z,5.27
2023-01-21T10:18:12.887Z,4.93
2023-01-21T10:20:50.673Z,5.07
2023-01-21T10:23:27.912Z,4.77
2023-01-21T10:26:00.234Z,6.97
2023-01-21T10:28:31.618Z,6.73
2023-01-21T10:31:09.192Z,4.90
2023-01-21T10:33:37.808Z,4.50
2023-01-21T10:36:27.956Z,5.17
2023-01-21T10:39:24.181Z,3.43
2023-01-21T10:42:22.181Z,4.87
2023-01-21T10:45:00.887Z,3.20
2023-01-21T10:47:44.305Z,4.13
2023-01-21T10:50:31.393Z,4.17
2023-01-21T10:53:30.446Z,4.07
2023-01-21T10:56:29.273Z,3.83
2023-01-21T10:59:05.082Z,3.23
2023-01-21T11:01:38.899Z,3.73
2023-01-21T11:04:36.818Z,4.80
2023-01-21T11:07:10.401Z,8.40
2023-01-21T11:09:44.756Z,4.00
2023-01-21T11:12:19.001Z,3.77
2023-01-21T11:14:54.974Z,3.30
2023-01-21T11:17:35.642Z,3.50
2023-01-21T11:20:21.684Z,4.23
2023-01-21T11:22:51.874Z,6.00
2023-01-21T11:25:36.007Z,4.20
2023-01-21T11:28:05.011Z,4.73
2023-01-21T11:30:51.032Z,3.10
2023-01-21T11:33:27.870Z,3.00
2023-01-21T11:36:23.093Z,3.93
2023-01-21T11:39:05.356Z,3.63
2023-01-21T11:41:37.850Z,3.50
2023-01-21T11:44:26.715Z,3.60
2023-01-21T11:46:55.210Z,3.77
2023-01-21T11:49:31.003Z,5.27
2023-01-21T11:52:20.563Z,5.07
2023-01-21T11:54:49.740Z,4.60
2023-01-21T11:57:28.699Z,4.90
2023-01-21T12:00:10.543Z,5.10
2023-01-21T12:02:45.745Z,4.97
2023-01-21T12:05:20.233Z,6.07
2023-01-21T12:07:52.573Z,5.60
2023-01-21T12:10:30.062Z,6.83
2023-01-21T12:13:27.511Z,8.57
2023-01-21T12:16:35.015Z,5.83
2023-01-21T12:19:38.078Z,6.37
2023-01-21T12:22:35.861Z,3.73
2023-01-21T12:25:31.852Z,8.57
2023-01-21T12:28:37.875Z,10.10
2023-01-21T12:31:23.705Z,7.83
2023-01-21T12:34:04.920Z,6.77
2023-01-21T12:36:41.471Z,6.87
2023-01-21T12:39:25.557Z,9.97
2023-01-21T12:42:08.468Z,4.20
2023-01-21T12:44:45.006Z,11.43
2023-01-21T12:47:24.596Z,5.63
2023-01-21T12:50:10.548Z,8.50
2023-01-21T12:52:51.661Z,3.87
2023-01-21T12:55:25.431Z,3.63
2023-01-21T12:58:04.235Z,4.47
2023-01-21T13:00:48.652Z,5.13
2023-01-21T13:03:27.795Z,9.07
2023-01-21T13:06:03.936Z,5.93
2023-01-21T13:08:48.214Z,4.73
2023-01-21T13:11:22.447Z,6.63
2023-01-21T13:14:18.504Z,7.67
2023-01-21T13:16:52.721Z,5.57
2023-01-21T13:19:21.373Z,7.17
2023-01-21T13:22:04.592Z,7.10
2023-01-21T13:24:54.614Z,6.77
2023-01-21T13:27:35.919Z,6.67
2023-01-21T13:30:22.284Z,3.87
2023-01-21T13:33:05.910Z,6.23
2023-01-21T13:35:47.567Z,3.47
2023-01-21T13:38:28.427Z,5.03
2023-01-21T13:41:10.828Z,3.87
2023-01-21T13:43:57.781Z,5.40
2023-01-21T13:46:55.889Z,3.43
2023-01-21T13:50:15.399Z,6.20
2023-01-21T13:53:20.634Z,5.07
2023-01-21T13:56:07.643Z,3.93
2023-01-21T13:58:43.111Z,3.40
2023-01-21T14:01:17.118Z,6.63
2023-01-21T14:03:57.467Z,3.53
2023-01-21T14:06:32.776Z,3.60
2023-01-21T14:09:07.840Z,4.50
2023-01-21T14:11:43.064Z,8.23
2023-01-21T14:15:09.560Z,4.60
2023-01-21T14:18:16.619Z,4.93
2023-01-21T14:21:14.948Z,4.57
2023-01-21T14:24:00.709Z,6.63
2023-01-21T14:26:59.184Z,8.80
2023-01-21T14:29:37.732Z,4.80
2023-01-21T14:32:35.521Z,6.03
2023-01-21T14:35:17.013Z,5.27
2023-01-21T14:38:43.532Z,6.20
2023-01-21T14:41:13.737Z,4.87
2023-01-21T14:43:52.179Z,5.53
2023-01-21T14:47:17.125Z,4.80
2023-01-21T14:49:49.047Z,5.60
2023-01-21T14:52:58.920Z,6.17
2023-01-21T14:55:32.389Z,5.07
2023-01-21T14:58:24.615Z,4.67
2023-01-21T15:00:53.902Z,9.43
2023-01-21T15:03:28.580Z,5.90
2023-01-21T15:06:02.489Z,5.30
2023-01-21T15:08:45.638Z,5.57
2023-01-21T15:11:23.886Z,4.27
2023-01-21T15:14:11.329Z,7.03
2023-01-21T15:16:41.646Z,5.33
2023-01-21T15:19:36.473Z,5.03
2023-01-21T15:22:38.898Z,6.37
2023-01-21T15:25:34.255Z,6.03
2023-01-21T15:28:43.796Z,5.00
2023-01-21T15:31:38.451Z,7.23
2023-01-21T15:34:16.048Z,7.67
2023-01-21T15:36:47.662Z,8.20
2023-01-21T15:39:23.825Z,7.60
2023-01-21T15:42:10.397Z,7.03
2023-01-21T15:45:10.304Z,6.80
2023-01-21T15:48:08.936Z,7.83
2023-01-21T15:50:46.820Z,6.93
2023-01-21T15:53:44.297Z,6.70
2023-01-21T15:56:36.743Z,6.07
2023-01-21T15:59:25.393Z,7.77
2023-01-21T16:02:18.416Z,8.80
2023-01-21T16:05:06.638Z,6.07
2023-01-21T16:07:53.863Z,5.60
2023-01-21T16:10:35.844Z,7.03
2023-01-21T16:13:18.356Z,6.00
2023-01-21T16:16:09.368Z,8.27
2023-01-21T16:18:54.430Z,6.27
2023-01-21T16:21:29.181Z,11.47
2023-01-21T16:24:01.822Z,7.70
2023-01-21T16:26:33.202Z,9.50
2023-01-21T16:29:02.325Z,8.13
2023-01-21T16:31:30.927Z,13.67
2023-01-21T16:34:00.839Z,10.63
2023-01-21T16:36:37.943Z,12.87
2023-01-21T16:39:10.157Z,9.43
2023-01-21T16:41:40.885Z,14.47
2023-01-21T16:44:17.659Z,11.50
2023-01-21T16:46:46.333Z,10.70
2023-01-21T16:49:19.028Z,10.83
2023-01-21T16:51:54.269Z,10.77
2023-01-21T16:54:31.766Z,11.20
2023-01-21T16:57:04.044Z,16.73
2023-01-21T16:59:41.645Z,9.23
2023-01-21T17:02:31.631Z,8.90
2023-01-21T17:05:05.972Z,9.63
2023-01-21T17:07:43.240Z,12.03
2023-01-21T17:10:22.060Z,15.40
2023-01-21T17:12:55.747Z,11.13
2023-01-21T17:15:36.177Z,9.87
2023-01-21T17:18:07.991Z,31.20
2023-01-21T17:21:07.638Z,11.57
2023-01-21T17:23:46.367Z,10.47
2023-01-21T17:26:21.385Z,10.20
2023-01-21T17:28:57.771Z,12.13
2023-01-21T17:31:30.112Z,12.07
2023-01-21T17:34:30.793Z,15.60
2023-01-21T17:37:01.012Z,15.90
2023-01-21T17:40:01.043Z,13.97
2023-01-21T17:42:41.875Z,16.23
2023-01-21T17:45:21.427Z,13.70
2023-01-21T17:48:08.634Z,16.43
2023-01-21T17:50:45.445Z,18.67
2023-01-21T17:53:23.391Z,17.90
2023-01-21T17:56:02.637Z,22.67
2023-01-21T17:58:52.537Z,19.27
2023-01-21T18:01:22.250Z,15.00
2023-01-21T18:03:50.773Z,16.97
2023-01-21T18:06:24.056Z,17.13
2023-01-21T18:08:54.466Z,14.90
2023-01-21T18:11:23.852Z,24.07
2023-01-21T18:13:52.620Z,23.80
2023-01-21T18:16:24.862Z,25.63
2023-01-21T18:18:54.176Z,23.73
2023-01-21T18:21:22.965Z,26.70
2023-01-21T18:23:51.523Z,22.70
2023-01-21T18:26:33.300Z,26.80
2023-01-21T18:29:01.735Z,25.00
2023-01-21T18:31:30.359Z,20.97
2023-01-21T18:33:58.800Z,17.80
2023-01-21T18:36:27.351Z,41.77
2023-01-21T18:38:55.839Z,54.90
2023-01-21T18:41:26.145Z,39.17
2023-01-21T18:43:54.683Z,40.70
2023-01-21T18:46:23.256Z,53.97
2023-01-21T18:48:51.766Z,18.00
2023-01-21T18:51:20.310Z,27.57
2023-01-21T18:53:48.756Z,24.47
2023-01-21T18:56:18.554Z,27.50
2023-01-21T18:59:20.153Z,19.93
2023-01-21T19:01:48.691Z,26.07
2023-01-21T19:04:19.775Z,20.27
2023-01-21T19:06:50.440Z,20.63
2023-01-21T19:09:23.481Z,32.27
2023-01-21T19:11:53.437Z,27.13
2023-01-21T19:14:23.187Z,28.57
2023-01-21T19:16:51.628Z,28.27
2023-01-21T19:19:20.140Z,18.37
2023-01-21T19:21:48.604Z,25.50
2023-01-21T19:24:17.056Z,22.73
2023-01-21T19:26:45.531Z,20.60
2023-01-21T19:29:33.754Z,21.50
2023-01-21T19:32:02.279Z,21.17
2023-01-21T19:34:30.671Z,35.00
2023-01-21T19:36:59.497Z,25.50
2023-01-21T19:39:29.702Z,23.17
2023-01-21T19:42:07.973Z,18.90
2023-01-21T19:44:39.456Z,16.47
2023-01-21T19:47:17.827Z,19.77
2023-01-21T19:49:46.426Z,28.17
2023-01-21T19:52:15.917Z,28.03
2023-01-21T19:54:44.391Z,20.63
2023-01-21T19:57:16.431Z,24.87
2023-01-21T19:59:49.385Z,21.70
2023-01-21T20:02:17.803Z,30.27
2023-01-21T20:04:46.250Z,23.97
2023-01-21T20:07:16.716Z,35.77
2023-01-21T20:09:45.736Z,31.97
2023-01-21T20:12:14.410Z,30.90
2023-01-21T20:14:42.882Z,45.77
2023-01-21T20:17:14.394Z,35.07
2023-01-21T20:19:42.885Z,39.17
2023-01-21T20:22:13.509Z,33.73
2023-01-21T20:24:41.953Z,31.53
2023-01-21T20:27:15.293Z,27.07
2023-01-21T20:29:55.770Z,29.80
2023-01-21T20:32:32.292Z,28.00
2023-01-21T20:35:03.469Z,24.43
2023-01-21T20:37:31.982Z,31.77
2023-01-21T20:40:00.419Z,31.80
2023-01-21T20:45:02.281Z,28.23
2023-01-21T20:47:38.321Z,30.07
2023-01-21T20:50:57.728Z,97.27
2023-01-21T20:53:26.306Z,25.20
2023-01-21T20:55:56.653Z,22.23
2023-01-21T20:58:25.988Z,25.50
2023-01-21T21:00:54.868Z,25.77
2023-01-21T21:03:24.737Z,18.07
2023-01-21T21:05:53.327Z,20.17
2023-01-21T21:08:23.243Z,19.57
2023-01-21T21:10:52.911Z,18.60
2023-01-21T21:13:21.398Z,21.10
2023-01-21T21:15:54.832Z,19.33
2023-01-21T21:18:24.913Z,17.90
2023-01-21T21:20:53.965Z,15.10
2023-01-21T21:23:22.416Z,14.50
2023-01-21T21:25:52.351Z,16.23
2023-01-21T21:28:21.269Z,12.27
2023-01-21T21:30:49.842Z,16.23
2023-01-21T21:33:22.860Z,14.10
2023-01-21T21:35:52.791Z,10.67
2023-01-21T21:38:22.879Z,10.10
2023-01-21T21:40:53.171Z,17.87
2023-01-21T21:43:35.633Z,10.43
2023-01-21T21:46:26.200Z,8.00
2023-01-21T21:48:54.975Z,12.40
2023-01-21T21:51:25.316Z,11.83
2023-01-21T21:53:53.919Z,12.20
2023-01-21T21:56:24.382Z,10.73
2023-01-21T21:58:53.164Z,7.10
2023-01-21T22:01:24.498Z,9.40
2023-01-21T22:03:53.588Z,8.47
2023-01-21T22:06:24.454Z,12.10
2023-01-21T22:09:18.032Z,10.40
2023-01-21T22:12:01.708Z,11.47
2023-01-21T22:14:30.247Z,12.13
2023-01-21T22:16:58.839Z,13.70
2023-01-21T22:19:27.450Z,17.97
2023-01-21T22:21:57.257Z,19.80
2023-01-21T22:24:25.660Z,14.80
2023-01-21T22:26:54.171Z,9.03
2023-01-21T22:29:22.699Z,7.87
2023-01-21T22:31:51.252Z,83.47
2023-01-21T22:34:19.908Z,19.97
2023-01-21T22:36:48.343Z,8.73
2023-01-21T22:39:43.150Z,5.77
2023-01-21T22:42:11.691Z,7.07
2023-01-21T22:44:40.309Z,8.47
2023-01-21T22:47:08.756Z,18.10
2023-01-21T22:49:37.186Z,19.63
2023-01-21T22:52:05.989Z,16.23
2023-01-21T22:54:34.737Z,16.27
2023-01-21T22:57:04.581Z,15.87
2023-01-21T22:59:33.682Z,19.20
2023-01-21T23:02:02.099Z,16.43
2023-01-21T23:04:30.575Z,19.47
2023-01-21T23:06:59.170Z,20.07
2023-01-21T23:09:27.910Z,20.10
2023-01-21T23:11:56.959Z,16.60
2023-01-21T23:14:51.463Z,15.73
2023-01-21T23:17:19.991Z,13.17
2023-01-21T23:19:48.514Z,16.97
2023-01-21T23:22:17.149Z,14.90
2023-01-21T23:24:45.619Z,14.70
2023-01-21T23:27:14.130Z,14.97
2023-01-21T23:29:42.594Z,14.20
2023-01-21T23:32:12.456Z,18.07
2023-01-21T23:34:40.949Z,14.60
2023-01-21T23:37:09.663Z,18.17
2023-01-21T23:39:38.319Z,15.47
2023-01-21T23:42:06.976Z,13.47
2023-01-21T23:44:35.442Z,11.57
2023-01-21T23:47:30.955Z,12.53
2023-01-21T23:50:17.255Z,15.77
2023-01-21T23:52:46.194Z,10.93
2023-01-21T23:55:15.659Z,13.93
2023-01-21T23:57:44.223Z,14.13
